createdAt,value
2018-07-02T00:01:06.572Z,19.53
2018-07-02T00:03:37.724Z,19.53
2018-07-02T00:06:33.962Z,19.57
2018-07-02T00:09:05.724Z,19.50
2018-07-02T00:11:37.390Z,19.54
2018-07-02T00:14:08.506Z,19.63
2018-07-02T00:16:39.738Z,19.62
2018-07-02T00:19:11.002Z,19.76
2018-07-02T00:21:42.047Z,19.82
2018-07-02T00:24:13.368Z,19.79
2018-07-02T00:26:44.475Z,19.87
2018-07-02T00:29:15.814Z,19.87
2018-07-02T00:31:47.091Z,19.89
2018-07-02T00:34:18.404Z,19.92
2018-07-02T00:36:49.633Z,19.92
2018-07-02T00:39:20.943Z,19.94
2018-07-02T00:41:51.979Z,19.98
2018-07-02T00:44:23.384Z,19.94
2018-07-02T00:46:55.733Z,20.00
2018-07-02T00:49:26.880Z,19.98
2018-07-02T00:51:57.967Z,19.95
2018-07-02T00:57:29.687Z,19.83
2018-07-02T01:00:12.163Z,19.88
2018-07-02T01:02:43.337Z,19.90
2018-07-02T01:05:14.607Z,19.90
2018-07-02T01:07:46.246Z,19.97
2018-07-02T01:10:17.566Z,19.96
2018-07-02T01:12:48.645Z,19.83
2018-07-02T01:15:19.962Z,19.75
2018-07-02T01:17:51.108Z,19.67
2018-07-02T01:20:22.070Z,19.52
2018-07-02T01:22:53.474Z,19.45
2018-07-02T01:25:24.552Z,19.46
2018-07-02T01:27:55.857Z,19.50
2018-07-02T01:30:26.821Z,19.59
2018-07-02T01:32:58.020Z,19.56
2018-07-02T01:35:30.316Z,19.62
2018-07-02T01:38:02.480Z,19.67
2018-07-02T01:40:34.396Z,19.77
2018-07-02T01:43:05.694Z,19.80
2018-07-02T01:45:37.079Z,19.82
2018-07-02T01:48:08.549Z,19.86
2018-07-02T01:50:39.960Z,19.81
2018-07-02T01:53:11.121Z,19.85
2018-07-02T01:55:42.343Z,19.84
2018-07-02T01:58:13.740Z,19.84
2018-07-02T02:00:45.019Z,19.82
2018-07-02T02:03:16.144Z,19.70
2018-07-02T02:05:47.224Z,19.66
2018-07-02T02:08:18.454Z,19.61
2018-07-02T02:10:49.748Z,19.59
2018-07-02T02:13:20.904Z,19.44
2018-07-02T02:15:51.918Z,19.20
2018-07-02T02:18:22.970Z,19.22
2018-07-02T02:20:55.942Z,19.21
2018-07-02T02:23:27.220Z,19.32
2018-07-02T02:25:58.453Z,19.26
2018-07-02T02:28:29.730Z,19.23
2018-07-02T02:31:01.108Z,19.27
2018-07-02T02:33:32.592Z,19.29
2018-07-02T02:36:03.732Z,19.06
2018-07-02T02:38:34.791Z,19.16
2018-07-02T02:41:05.926Z,19.02
2018-07-02T02:43:37.078Z,19.01
2018-07-02T02:46:08.511Z,19.06
2018-07-02T02:48:39.493Z,19.10
2018-07-02T02:51:10.917Z,19.16
2018-07-02T02:53:42.034Z,19.33
2018-07-02T02:56:13.411Z,19.43
2018-07-02T02:58:44.722Z,19.36
2018-07-02T03:01:16.020Z,19.51
2018-07-02T03:03:46.922Z,19.63
2018-07-02T03:06:18.061Z,19.81
2018-07-02T03:08:49.161Z,20.27
2018-07-02T03:11:20.061Z,20.63
2018-07-02T03:13:51.412Z,20.84
2018-07-02T03:16:22.788Z,21.13
2018-07-02T03:18:53.944Z,21.01
2018-07-02T03:21:25.260Z,21.08
2018-07-02T03:23:56.447Z,21.33
2018-07-02T03:26:27.360Z,21.57
2018-07-02T03:28:58.536Z,21.86
2018-07-02T03:31:29.780Z,21.82
2018-07-02T03:34:00.969Z,21.50
2018-07-02T03:36:32.176Z,21.46
2018-07-02T03:39:03.278Z,21.57
2018-07-02T03:41:34.313Z,21.66
2018-07-02T03:44:05.404Z,21.64
2018-07-02T03:46:36.638Z,21.53
2018-07-02T03:49:07.864Z,21.61
2018-07-02T03:51:38.831Z,21.54
2018-07-02T03:54:09.760Z,21.30
2018-07-02T03:56:40.876Z,21.05
2018-07-02T03:59:12.522Z,20.81
2018-07-02T04:01:44.624Z,20.96
2018-07-02T04:04:15.799Z,21.12
2018-07-02T04:06:47.322Z,21.15
2018-07-02T04:09:18.622Z,21.06
2018-07-02T04:11:49.820Z,21.01
2018-07-02T04:14:21.819Z,21.03
2018-07-02T04:16:53.132Z,20.87
2018-07-02T04:19:24.456Z,20.84
2018-07-02T04:21:55.801Z,20.85
2018-07-02T04:24:26.851Z,20.97
2018-07-02T04:26:58.117Z,21.08
2018-07-02T04:29:29.466Z,20.88
2018-07-02T04:32:00.762Z,20.93
2018-07-02T04:34:31.912Z,20.94
2018-07-02T04:37:02.803Z,21.06
2018-07-02T04:39:33.744Z,21.31
2018-07-02T04:42:04.772Z,21.35
2018-07-02T04:44:35.787Z,21.39
2018-07-02T04:47:06.818Z,21.53
2018-07-02T04:49:37.795Z,21.60
2018-07-02T04:52:08.882Z,21.81
2018-07-02T04:54:39.856Z,22.08
2018-07-02T04:57:11.007Z,22.58
2018-07-02T04:59:42.002Z,23.00
2018-07-02T05:02:13.018Z,23.05
2018-07-02T05:04:45.055Z,23.56
2018-07-02T05:07:16.166Z,24.09
2018-07-02T05:09:47.151Z,23.81
2018-07-02T05:12:17.950Z,24.72
2018-07-02T05:14:48.881Z,25.14
2018-07-02T05:17:20.221Z,24.29
2018-07-02T05:19:51.446Z,24.39
2018-07-02T05:22:22.673Z,23.72
2018-07-02T05:24:53.706Z,23.94
2018-07-02T05:27:24.685Z,26.19
2018-07-02T05:29:56.032Z,26.54
2018-07-02T05:32:27.298Z,27.27
2018-07-02T05:34:58.563Z,28.77
2018-07-02T05:37:29.672Z,28.46
2018-07-02T05:40:01.281Z,28.30
2018-07-02T05:42:32.465Z,27.39
2018-07-02T05:45:03.979Z,26.58
2018-07-02T05:47:35.177Z,27.11
2018-07-02T05:50:06.518Z,29.61
2018-07-02T05:52:37.559Z,31.68
2018-07-02T05:55:08.659Z,33.82
2018-07-02T05:57:39.857Z,35.92
2018-07-02T06:00:11.223Z,37.11
2018-07-02T06:02:42.576Z,38.70
2018-07-02T06:05:13.818Z,39.13
2018-07-02T06:07:45.059Z,39.20
2018-07-02T06:10:16.317Z,38.64
2018-07-02T06:12:47.262Z,39.35
2018-07-02T06:15:18.503Z,40.30
2018-07-02T06:17:50.537Z,39.33
2018-07-02T06:20:21.782Z,36.88
2018-07-02T06:22:54.683Z,38.60
2018-07-02T06:25:25.942Z,39.88
2018-07-02T06:27:57.195Z,39.13
2018-07-02T06:30:28.437Z,40.08
2018-07-02T06:32:59.611Z,40.61
2018-07-02T06:35:30.735Z,40.98
2018-07-02T06:38:01.741Z,40.98
2018-07-02T06:40:32.901Z,40.97
2018-07-02T06:43:04.143Z,41.02
2018-07-02T06:45:35.084Z,40.82
2018-07-02T06:48:06.418Z,40.92
2018-07-02T06:50:37.539Z,39.24
2018-07-02T06:53:08.785Z,40.32
2018-07-02T06:55:39.753Z,39.87
2018-07-02T06:58:10.816Z,40.70
2018-07-02T07:00:42.085Z,40.83
2018-07-02T07:03:12.960Z,39.79
2018-07-02T07:05:43.888Z,40.45
2018-07-02T07:08:15.219Z,41.85
2018-07-02T07:10:46.472Z,41.90
2018-07-02T07:13:17.899Z,41.43
2018-07-02T07:15:48.983Z,39.54
2018-07-02T07:18:20.180Z,38.00
2018-07-02T07:20:52.089Z,36.48
2018-07-02T07:23:23.167Z,38.72
2018-07-02T07:25:54.528Z,37.60
2018-07-02T07:28:25.646Z,35.95
2018-07-02T07:30:56.861Z,37.29
2018-07-02T07:33:28.336Z,35.39
2018-07-02T07:35:59.336Z,36.52
2018-07-02T07:38:30.719Z,37.55
2018-07-02T07:41:03.095Z,36.09
2018-07-02T07:43:34.065Z,36.22
2018-07-02T07:46:05.637Z,35.72
2018-07-02T07:48:37.448Z,34.95
2018-07-02T07:51:09.487Z,35.47
2018-07-02T07:53:40.606Z,35.32
2018-07-02T07:56:11.673Z,33.97
2018-07-02T07:58:42.648Z,34.60
2018-07-02T08:01:14.725Z,34.21
2018-07-02T08:03:46.084Z,33.78
2018-07-02T08:06:17.531Z,33.81
2018-07-02T08:08:48.984Z,33.15
2018-07-02T08:11:21.541Z,33.66
2018-07-02T08:13:53.129Z,34.16
2018-07-02T08:16:26.115Z,32.89
2018-07-02T08:18:57.604Z,32.09
2018-07-02T08:21:28.748Z,30.96
2018-07-02T08:24:00.216Z,30.12
2018-07-02T08:26:31.493Z,29.52
2018-07-02T08:29:02.789Z,28.99
2018-07-02T08:31:33.957Z,28.66
2018-07-02T08:34:05.046Z,28.32
2018-07-02T08:36:35.954Z,27.79
2018-07-02T08:39:11.303Z,27.17
2018-07-02T08:41:42.799Z,27.17
2018-07-02T08:44:13.867Z,26.99
2018-07-02T08:46:45.209Z,26.96
2018-07-02T08:49:16.399Z,27.10
2018-07-02T08:51:47.547Z,27.23
2018-07-02T08:54:18.802Z,27.36
2018-07-02T08:56:50.830Z,27.28
2018-07-02T08:59:22.091Z,27.39
2018-07-02T09:01:54.122Z,27.51
2018-07-02T09:04:25.275Z,27.34
2018-07-02T09:06:56.652Z,27.30
2018-07-02T09:09:27.823Z,27.26
2018-07-02T09:11:58.881Z,27.25
2018-07-02T09:14:29.934Z,27.32
2018-07-02T09:17:01.339Z,27.26
2018-07-02T09:19:32.940Z,27.01
2018-07-02T09:22:04.136Z,27.00
2018-07-02T09:24:36.311Z,27.34
2018-07-02T09:27:07.469Z,27.35
2018-07-02T09:29:38.666Z,27.34
2018-07-02T09:32:09.689Z,27.39
2018-07-02T09:34:41.494Z,27.38
2018-07-02T09:37:12.711Z,27.38
2018-07-02T09:39:43.848Z,27.56
2018-07-02T09:42:15.352Z,27.52
2018-07-02T09:44:46.753Z,27.40
2018-07-02T09:47:17.696Z,27.53
2018-07-02T09:49:48.910Z,27.60
2018-07-02T09:52:20.302Z,27.48
2018-07-02T09:54:51.444Z,27.56
2018-07-02T09:57:23.196Z,27.65
2018-07-02T09:59:54.450Z,27.51
2018-07-02T10:02:25.847Z,27.45
2018-07-02T10:04:57.128Z,27.57
2018-07-02T10:07:28.402Z,27.45
2018-07-02T10:10:00.566Z,27.59
2018-07-02T10:12:32.802Z,27.56
2018-07-02T10:15:04.176Z,27.47
2018-07-02T10:17:35.436Z,27.62
2018-07-02T10:20:07.369Z,27.63
2018-07-02T10:22:38.656Z,27.53
2018-07-02T10:25:09.937Z,27.53
2018-07-02T10:27:41.027Z,27.45
2018-07-02T10:30:12.182Z,27.61
2018-07-02T10:32:43.403Z,27.36
2018-07-02T10:35:14.364Z,27.46
2018-07-02T10:37:45.632Z,27.62
2018-07-02T10:40:16.766Z,27.84
2018-07-02T10:42:48.491Z,27.84
2018-07-02T10:45:19.584Z,27.87
2018-07-02T10:47:50.689Z,28.07
2018-07-02T10:50:21.848Z,28.05
2018-07-02T10:52:53.928Z,28.25
2018-07-02T10:55:25.225Z,28.23
2018-07-02T10:57:56.558Z,28.22
2018-07-02T11:00:27.885Z,28.15
2018-07-02T11:02:58.915Z,28.11
2018-07-02T11:05:30.099Z,28.26
2018-07-02T11:08:01.237Z,28.17
2018-07-02T11:10:33.138Z,28.59
2018-07-02T11:13:09.232Z,28.53
2018-07-02T11:15:41.798Z,28.46
2018-07-02T11:18:14.244Z,28.57
2018-07-02T11:20:45.714Z,28.42
2018-07-02T11:23:16.957Z,28.33
2018-07-02T11:25:47.997Z,28.13
2018-07-02T11:28:19.264Z,28.22
2018-07-02T11:30:50.562Z,28.17
2018-07-02T11:33:21.666Z,28.21
2018-07-02T11:35:52.761Z,28.15
2018-07-02T11:38:23.917Z,28.17
2018-07-02T11:40:54.937Z,28.26
2018-07-02T11:43:26.059Z,28.23
2018-07-02T11:45:57.160Z,28.36
2018-07-02T11:48:28.138Z,28.44
2018-07-02T11:51:02.426Z,28.44
2018-07-02T11:53:34.557Z,28.73
2018-07-02T11:56:05.749Z,28.50
2018-07-02T11:58:37.753Z,28.57
2018-07-02T12:01:08.914Z,28.49
2018-07-02T12:03:40.887Z,28.65
2018-07-02T12:06:11.851Z,28.54
2018-07-02T12:08:44.370Z,28.48
2018-07-02T12:11:15.597Z,28.60
2018-07-02T12:13:46.938Z,28.45
2018-07-02T12:16:17.966Z,28.37
2018-07-02T12:18:49.325Z,28.22
2018-07-02T12:21:20.498Z,28.31
2018-07-02T12:23:51.888Z,28.26
2018-07-02T12:26:23.115Z,28.22
2018-07-02T12:28:54.461Z,27.94
2018-07-02T12:31:25.475Z,27.78
2018-07-02T12:33:57.558Z,27.57
2018-07-02T12:36:30.060Z,27.83
2018-07-02T12:39:01.074Z,27.92
2018-07-02T12:41:31.995Z,27.85
2018-07-02T12:44:03.051Z,27.75
2018-07-02T12:46:37.067Z,27.53
2018-07-02T12:49:08.114Z,27.72
2018-07-02T12:51:39.170Z,27.86
2018-07-02T12:54:11.463Z,27.43
2018-07-02T12:56:42.906Z,27.29
2018-07-02T12:59:14.284Z,27.55
2018-07-02T13:01:45.485Z,27.52
2018-07-02T13:04:16.636Z,27.60
2018-07-02T13:06:47.913Z,27.58
2018-07-02T13:09:20.207Z,27.53
2018-07-02T13:11:51.504Z,27.49
2018-07-02T13:14:22.796Z,27.59
2018-07-02T13:16:53.825Z,27.55
2018-07-02T13:19:24.573Z,27.59
2018-07-02T13:21:55.762Z,27.45
2018-07-02T13:24:26.884Z,27.20
2018-07-02T13:26:58.034Z,26.92
2018-07-02T13:29:29.343Z,26.93
2018-07-02T13:32:00.342Z,26.77
2018-07-02T13:34:31.477Z,26.86
2018-07-02T13:37:02.613Z,26.78
2018-07-02T13:39:33.767Z,26.65
2018-07-02T13:42:04.927Z,26.60
2018-07-02T13:44:36.061Z,26.61
2018-07-02T13:47:07.370Z,26.68
2018-07-02T13:49:39.363Z,26.50
2018-07-02T13:52:10.364Z,26.50
2018-07-02T13:54:41.689Z,26.41
2018-07-02T13:57:12.855Z,26.26
2018-07-02T13:59:44.045Z,26.12
2018-07-02T14:02:15.131Z,25.97
2018-07-02T14:04:46.289Z,25.86
2018-07-02T14:07:17.234Z,25.69
2018-07-02T14:09:48.462Z,25.66
2018-07-02T14:12:19.774Z,25.74
2018-07-02T14:14:50.864Z,25.82
2018-07-02T14:17:22.020Z,25.80
2018-07-02T14:19:54.267Z,25.78
2018-07-02T14:22:25.440Z,25.79
2018-07-02T14:24:56.470Z,25.75
2018-07-02T14:27:28.041Z,25.86
2018-07-02T14:29:59.229Z,25.89
2018-07-02T14:32:30.599Z,25.79
2018-07-02T14:35:01.624Z,25.73
2018-07-02T14:37:32.867Z,25.79
2018-07-02T14:40:04.797Z,25.83
2018-07-02T14:42:36.220Z,25.69
2018-07-02T14:45:07.691Z,25.65
2018-07-02T14:47:38.729Z,25.68
2018-07-02T14:50:10.318Z,25.85
2018-07-02T14:52:41.764Z,25.79
2018-07-02T14:55:13.083Z,25.65
2018-07-02T14:57:44.273Z,25.68
2018-07-02T15:00:16.282Z,25.62
2018-07-02T15:02:47.318Z,25.56
2018-07-02T15:05:18.747Z,25.31
2018-07-02T15:07:50.066Z,25.30
2018-07-02T15:10:21.365Z,25.50
2018-07-02T15:12:52.615Z,25.54
2018-07-02T15:15:23.687Z,25.60
2018-07-02T15:17:54.902Z,25.70
2018-07-02T15:20:25.962Z,25.69
2018-07-02T15:22:56.885Z,25.69
2018-07-02T15:25:28.141Z,25.68
2018-07-02T15:28:00.569Z,25.72
2018-07-02T15:30:32.707Z,25.75
2018-07-02T15:33:04.117Z,25.58
2018-07-02T15:35:35.524Z,25.50
2018-07-02T15:38:07.069Z,25.57
2018-07-02T15:40:38.356Z,25.49
2018-07-02T15:43:09.833Z,25.38
2018-07-02T15:45:42.366Z,25.33
2018-07-02T15:48:13.589Z,25.22
2018-07-02T15:50:44.727Z,25.06
2018-07-02T15:53:17.296Z,24.92
2018-07-02T15:55:48.693Z,24.77
2018-07-02T15:58:19.976Z,24.69
2018-07-02T16:00:51.248Z,24.45
2018-07-02T16:03:22.899Z,24.44
2018-07-02T16:05:53.848Z,24.48
2018-07-02T16:08:24.989Z,24.43
2018-07-02T16:10:56.209Z,24.23
2018-07-02T16:13:27.763Z,24.20
2018-07-02T16:15:58.979Z,24.11
2018-07-02T16:18:30.282Z,24.02
2018-07-02T16:21:01.725Z,23.90
2018-07-02T16:23:32.942Z,23.81
2018-07-02T16:26:04.122Z,23.81
2018-07-02T16:28:36.412Z,23.76
2018-07-02T16:31:08.477Z,23.76
2018-07-02T16:33:39.581Z,23.65
2018-07-02T16:36:10.624Z,23.74
2018-07-02T16:38:41.605Z,23.81
2018-07-02T16:41:13.609Z,23.83
2018-07-02T16:43:45.061Z,23.97
2018-07-02T16:46:16.915Z,23.95
2018-07-02T16:48:47.984Z,24.02
2018-07-02T16:51:19.402Z,23.95
2018-07-02T16:53:50.791Z,24.01
2018-07-02T16:56:22.436Z,23.93
2018-07-02T16:58:53.621Z,23.82
2018-07-02T17:01:24.735Z,23.88
2018-07-02T17:03:57.082Z,23.84
2018-07-02T17:06:28.562Z,23.68
2018-07-02T17:08:59.677Z,23.58
2018-07-02T17:11:30.871Z,23.52
2018-07-02T17:14:02.186Z,23.36
2018-07-02T17:16:33.382Z,23.31
2018-07-02T17:19:04.570Z,23.33
2018-07-02T17:21:36.987Z,23.25
2018-07-02T17:24:08.223Z,23.16
2018-07-02T17:26:39.220Z,23.21
2018-07-02T17:29:10.190Z,23.15
2018-07-02T17:31:41.391Z,23.09
2018-07-02T17:34:13.824Z,22.94
2018-07-02T17:36:45.163Z,22.93
2018-07-02T17:39:17.669Z,22.95
2018-07-02T17:41:49.619Z,22.86
2018-07-02T17:44:20.778Z,22.83
2018-07-02T17:46:52.214Z,22.79
2018-07-02T17:49:23.603Z,22.70
2018-07-02T17:51:55.055Z,22.64
2018-07-02T17:54:26.336Z,22.65
2018-07-02T17:56:58.720Z,22.73
2018-07-02T17:59:30.037Z,22.61
2018-07-02T18:02:01.364Z,22.61
2018-07-02T18:04:32.700Z,22.66
2018-07-02T18:07:04.046Z,22.69
2018-07-02T18:09:35.477Z,22.57
2018-07-02T18:12:06.768Z,22.63
2018-07-02T18:14:38.163Z,22.53
2018-07-02T18:17:09.432Z,22.48
2018-07-02T18:19:40.467Z,22.50
2018-07-02T18:22:11.481Z,22.49
2018-07-02T18:24:42.942Z,22.60
2018-07-02T18:27:14.158Z,22.59
2018-07-02T18:29:45.760Z,22.53
2018-07-02T18:32:17.030Z,22.51
2018-07-02T18:34:48.485Z,22.45
2018-07-02T18:37:19.465Z,22.37
2018-07-02T18:39:50.586Z,22.39
2018-07-02T18:42:21.774Z,22.38
2018-07-02T18:44:53.326Z,22.30
2018-07-02T18:47:24.302Z,22.46
2018-07-02T18:49:55.348Z,22.39
2018-07-02T18:52:26.670Z,22.46
2018-07-02T18:54:57.824Z,22.46
2018-07-02T18:57:29.036Z,22.44
2018-07-02T19:00:00.455Z,22.41
2018-07-02T19:02:31.741Z,22.49
2018-07-02T19:05:02.845Z,22.46
2018-07-02T19:07:34.485Z,22.53
2018-07-02T19:10:06.422Z,22.54
2018-07-02T19:12:37.790Z,22.45
2018-07-02T19:15:09.753Z,22.36
2018-07-02T19:17:41.110Z,22.31
2018-07-02T19:20:12.472Z,22.34
2018-07-02T19:22:43.629Z,22.34
2018-07-02T19:25:15.236Z,22.31
2018-07-02T19:27:46.653Z,22.26
2018-07-02T19:30:18.001Z,22.25
2018-07-02T19:32:49.522Z,22.23
2018-07-02T19:35:20.740Z,22.29
2018-07-02T19:37:52.449Z,22.24
2018-07-02T19:40:23.734Z,22.26
2018-07-02T19:42:55.246Z,22.33
2018-07-02T19:45:26.383Z,22.23
2018-07-02T19:47:57.180Z,22.40
2018-07-02T19:50:27.941Z,22.46
2018-07-02T19:52:59.465Z,22.43
2018-07-02T19:55:31.448Z,22.51
2018-07-02T19:58:02.878Z,22.47
2018-07-02T20:00:34.518Z,22.41
2018-07-02T20:03:07.151Z,22.29
2018-07-02T20:05:39.414Z,22.28
2018-07-02T20:08:11.627Z,22.28
2018-07-02T20:10:43.961Z,22.27
2018-07-02T20:13:15.499Z,22.18
2018-07-02T20:15:47.602Z,22.28
2018-07-02T20:18:20.723Z,22.35
2018-07-02T20:20:52.060Z,22.36
2018-07-02T20:23:23.066Z,22.27
2018-07-02T20:25:54.179Z,22.22
2018-07-02T20:28:25.594Z,22.14
2018-07-02T20:30:56.715Z,22.21
2018-07-02T20:33:28.170Z,22.15
2018-07-02T20:36:00.283Z,22.19
2018-07-02T20:38:31.677Z,22.31
2018-07-02T20:41:02.505Z,22.41
2018-07-02T20:43:33.850Z,22.48
2018-07-02T20:46:05.248Z,22.62
2018-07-02T20:48:36.380Z,22.60
2018-07-02T20:51:07.495Z,22.64
2018-07-02T20:53:38.400Z,22.72
2018-07-02T20:56:09.729Z,22.75
2018-07-02T20:58:40.781Z,22.80
2018-07-02T21:01:11.858Z,22.77
2018-07-02T21:03:43.880Z,22.86
2018-07-02T21:06:15.548Z,22.72
2018-07-02T21:08:47.059Z,22.76
2018-07-02T21:11:18.256Z,22.83
2018-07-02T21:13:50.189Z,22.86
2018-07-02T21:16:21.443Z,22.77
2018-07-02T21:18:52.519Z,22.73
2018-07-02T21:21:23.614Z,22.79
2018-07-02T21:23:54.927Z,22.76
2018-07-02T21:26:26.058Z,22.71
2018-07-02T21:28:57.420Z,22.66
2018-07-02T21:31:28.573Z,22.59
2018-07-02T21:33:59.717Z,22.52
2018-07-02T21:36:30.657Z,22.47
2018-07-02T21:39:01.714Z,22.37
2018-07-02T21:41:32.973Z,22.41
2018-07-02T21:44:04.190Z,22.48
2018-07-02T21:46:35.442Z,22.50
2018-07-02T21:49:06.666Z,22.51
2018-07-02T21:51:37.844Z,22.50
2018-07-02T21:54:08.971Z,22.49
2018-07-02T21:56:40.027Z,22.46
2018-07-02T21:59:11.235Z,22.44
2018-07-02T22:01:42.655Z,22.39
2018-07-02T22:04:13.972Z,22.36
2018-07-02T22:06:45.109Z,22.36
2018-07-02T22:09:16.234Z,22.32
2018-07-02T22:11:47.310Z,22.18
2018-07-02T22:14:18.325Z,22.14
2018-07-02T22:16:49.204Z,22.18
2018-07-02T22:19:20.091Z,22.13
2018-07-02T22:21:51.163Z,22.06
2018-07-02T22:24:22.242Z,22.07
2018-07-02T22:26:53.588Z,22.10
2018-07-02T22:29:24.744Z,22.03
2018-07-02T22:31:55.778Z,21.93
2018-07-02T22:34:27.584Z,21.92
2018-07-02T22:36:58.844Z,21.86
2018-07-02T22:39:29.965Z,21.82
2018-07-02T22:42:01.167Z,21.81
2018-07-02T22:44:32.509Z,21.76
2018-07-02T22:47:03.567Z,21.76
2018-07-02T22:49:35.309Z,21.81
2018-07-02T22:52:07.549Z,21.87
2018-07-02T22:54:38.863Z,21.91
2018-07-02T22:57:09.968Z,21.91
2018-07-02T22:59:41.059Z,21.93
2018-07-02T23:02:12.417Z,21.88
2018-07-02T23:04:43.607Z,21.92
2018-07-02T23:07:14.690Z,21.99
2018-07-02T23:09:45.752Z,22.00
2018-07-02T23:12:17.650Z,21.96
2018-07-02T23:14:50.155Z,21.88
2018-07-02T23:17:21.454Z,21.83
2018-07-02T23:19:52.452Z,21.87
2018-07-02T23:22:23.589Z,21.88
2018-07-02T23:24:55.011Z,21.86
2018-07-02T23:27:26.158Z,21.93
2018-07-02T23:29:57.205Z,21.86
2018-07-02T23:32:28.454Z,21.85
2018-07-02T23:34:59.439Z,21.87
2018-07-02T23:37:30.424Z,21.87
2018-07-02T23:40:01.307Z,21.85
2018-07-02T23:42:33.692Z,21.83
2018-07-02T23:45:04.910Z,21.72
2018-07-02T23:47:35.926Z,21.66
2018-07-02T23:50:07.184Z,21.67
2018-07-02T23:52:40.329Z,21.62
2018-07-02T23:55:11.638Z,21.49
2018-07-02T23:57:42.919Z,21.28
